LIRN/NAP METAR and TAF weather

Enter ICAO airport designator
Station Type Date Time Source
LIRN METAR 2019/12/08 16:50 UTC NOAA

LIRN 081650Z 35002KT 9999 FEW030 SCT070 14/10 Q1020 NOSIG


Station Type Date Time Source
LIRN Decoded METAR 2019/12/08 16:50 UTC NOAA

Napoli / Capodichino, Italy (LIRN) 40-51N 014-18E 72M
Dec 08, 2019 - 11:50 AM EST / 2019.12.08 1650 UTC
Wind: from the N (350 degrees) at 2 MPH (2 KT):0
Visibility: greater than 7 mile(s):0
Sky conditions: partly cloudy
Temperature: 57 F (14 C)
Dew Point: 50 F (10 C)
Relative Humidity: 76%
Pressure (altimeter): 30.12 in. Hg (1020 hPa)
ob: LIRN 081650Z 35002KT 9999 FEW030 SCT070 14/10 Q1020 NOSIG
cycle: 17

Station Type Date Time Source
LIRN TAF 2019/12/08 12:21 UTC NOAA

TAF LIRN 081100Z 0812/0912 VRB05KT 9999 SCT030
BECMG 0909/0911 24014KT

Example: see airport list